sensor_id;sensor_type;location;lat;lon;timestamp;P1;durP1;ratioP1;P2;durP2;ratioP2
2009;SDS011;1008;47.404;8.502;2023-08-31T00:01:13;5.47;;;4.97;;
2009;SDS011;1008;47.404;8.502;2023-08-31T00:03:39;6.23;;;5.53;;
2009;SDS011;1008;47.404;8.502;2023-08-31T00:06:06;5.17;;;4.67;;
2009;SDS011;1008;47.404;8.502;2023-08-31T00:08:34;5.07;;;4.10;;
2009;SDS011;1008;47.404;8.502;2023-08-31T00:11:00;5.80;;;4.97;;
2009;SDS011;1008;47.404;8.502;2023-08-31T00:13:28;6.00;;;5.00;;
2009;SDS011;1008;47.404;8.502;2023-08-31T00:15:55;7.37;;;5.50;;
2009;SDS011;1008;47.404;8.502;2023-08-31T00:18:22;6.07;;;4.90;;
2009;SDS011;1008;47.404;8.502;2023-08-31T00:20:50;5.73;;;4.90;;
2009;SDS011;1008;47.404;8.502;2023-08-31T00:23:17;6.93;;;4.40;;
2009;SDS011;1008;47.404;8.502;2023-08-31T00:25:44;7.30;;;4.90;;
2009;SDS011;1008;47.404;8.502;2023-08-31T00:28:13;6.03;;;5.10;;
2009;SDS011;1008;47.404;8.502;2023-08-31T00:30:41;6.10;;;5.40;;
2009;SDS011;1008;47.404;8.502;2023-08-31T00:33:09;5.23;;;4.67;;
2009;SDS011;1008;47.404;8.502;2023-08-31T00:35:36;6.60;;;4.90;;
2009;SDS011;1008;47.404;8.502;2023-08-31T00:38:03;5.67;;;4.93;;
2009;SDS011;1008;47.404;8.502;2023-08-31T00:40:30;6.70;;;5.30;;
2009;SDS011;1008;47.404;8.502;2023-08-31T00:42:58;7.33;;;4.60;;
2009;SDS011;1008;47.404;8.502;2023-08-31T00:45:25;5.50;;;5.00;;
2009;SDS011;1008;47.404;8.502;2023-08-31T00:47:53;6.50;;;4.80;;
2009;SDS011;1008;47.404;8.502;2023-08-31T00:50:22;7.00;;;4.80;;
2009;SDS011;1008;47.404;8.502;2023-08-31T00:52:49;5.20;;;4.70;;
2009;SDS011;1008;47.404;8.502;2023-08-31T00:55:16;5.23;;;4.73;;
2009;SDS011;1008;47.404;8.502;2023-08-31T00:57:43;4.97;;;4.47;;
2009;SDS011;1008;47.404;8.502;2023-08-31T01:00:10;5.03;;;4.53;;
2009;SDS011;1008;47.404;8.502;2023-08-31T01:02:40;5.43;;;4.93;;
2009;SDS011;1008;47.404;8.502;2023-08-31T01:05:13;5.17;;;4.60;;
2009;SDS011;1008;47.404;8.502;2023-08-31T01:07:52;4.80;;;4.30;;
2009;SDS011;1008;47.404;8.502;2023-08-31T01:10:25;4.63;;;4.10;;
2009;SDS011;1008;47.404;8.502;2023-08-31T01:13:07;5.07;;;4.27;;
2009;SDS011;1008;47.404;8.502;2023-08-31T01:15:39;4.83;;;3.93;;
2009;SDS011;1008;47.404;8.502;2023-08-31T01:18:11;5.03;;;4.43;;
2009;SDS011;1008;47.404;8.502;2023-08-31T01:20:44;5.50;;;4.33;;
2009;SDS011;1008;47.404;8.502;2023-08-31T01:23:18;4.57;;;3.90;;
2009;SDS011;1008;47.404;8.502;2023-08-31T01:25:47;4.37;;;3.97;;
2009;SDS011;1008;47.404;8.502;2023-08-31T01:28:14;5.73;;;3.90;;
2009;SDS011;1008;47.404;8.502;2023-08-31T01:30:41;4.47;;;4.07;;
2009;SDS011;1008;47.404;8.502;2023-08-31T01:33:07;4.77;;;4.37;;
2009;SDS011;1008;47.404;8.502;2023-08-31T01:35:35;5.70;;;4.20;;
2009;SDS011;1008;47.404;8.502;2023-08-31T01:38:09;4.20;;;3.77;;
2009;SDS011;1008;47.404;8.502;2023-08-31T01:40:38;4.33;;;3.70;;
2009;SDS011;1008;47.404;8.502;2023-08-31T01:43:12;5.03;;;4.07;;
2009;SDS011;1008;47.404;8.502;2023-08-31T01:45:39;4.20;;;3.80;;
2009;SDS011;1008;47.404;8.502;2023-08-31T01:48:07;4.50;;;4.07;;
2009;SDS011;1008;47.404;8.502;2023-08-31T01:50:34;3.83;;;3.43;;
2009;SDS011;1008;47.404;8.502;2023-08-31T01:53:01;4.30;;;3.70;;
2009;SDS011;1008;47.404;8.502;2023-08-31T01:55:28;4.20;;;3.73;;
2009;SDS011;1008;47.404;8.502;2023-08-31T01:57:54;4.77;;;3.20;;
2009;SDS011;1008;47.404;8.502;2023-08-31T02:00:22;5.00;;;4.03;;
2009;SDS011;1008;47.404;8.502;2023-08-31T02:02:49;5.67;;;3.67;;
2009;SDS011;1008;47.404;8.502;2023-08-31T02:05:16;3.67;;;3.30;;
2009;SDS011;1008;47.404;8.502;2023-08-31T02:07:43;3.30;;;3.10;;
2009;SDS011;1008;47.404;8.502;2023-08-31T02:10:09;4.63;;;3.70;;
2009;SDS011;1008;47.404;8.502;2023-08-31T02:12:36;3.67;;;3.20;;
2009;SDS011;1008;47.404;8.502;2023-08-31T02:15:03;3.83;;;3.40;;
2009;SDS011;1008;47.404;8.502;2023-08-31T02:17:32;5.13;;;3.50;;
2009;SDS011;1008;47.404;8.502;2023-08-31T02:20:00;8.77;;;3.43;;
2009;SDS011;1008;47.404;8.502;2023-08-31T02:22:29;5.17;;;3.57;;
2009;SDS011;1008;47.404;8.502;2023-08-31T02:24:56;3.90;;;3.33;;
2009;SDS011;1008;47.404;8.502;2023-08-31T02:27:23;7.73;;;3.93;;
2009;SDS011;1008;47.404;8.502;2023-08-31T02:29:49;5.17;;;3.87;;
2009;SDS011;1008;47.404;8.502;2023-08-31T02:32:16;4.30;;;3.30;;
2009;SDS011;1008;47.404;8.502;2023-08-31T02:34:44;5.10;;;3.20;;
2009;SDS011;1008;47.404;8.502;2023-08-31T02:37:11;7.63;;;3.80;;
2009;SDS011;1008;47.404;8.502;2023-08-31T02:39:38;5.23;;;3.50;;
2009;SDS011;1008;47.404;8.502;2023-08-31T02:42:05;4.73;;;3.63;;
2009;SDS011;1008;47.404;8.502;2023-08-31T02:44:32;4.43;;;3.87;;
2009;SDS011;1008;47.404;8.502;2023-08-31T02:46:59;6.23;;;3.67;;
2009;SDS011;1008;47.404;8.502;2023-08-31T02:49:27;6.07;;;4.00;;
2009;SDS011;1008;47.404;8.502;2023-08-31T02:51:55;4.90;;;4.03;;
2009;SDS011;1008;47.404;8.502;2023-08-31T02:54:21;4.43;;;3.43;;
2009;SDS011;1008;47.404;8.502;2023-08-31T02:56:48;4.20;;;3.23;;
2009;SDS011;1008;47.404;8.502;2023-08-31T02:59:15;3.30;;;3.00;;
2009;SDS011;1008;47.404;8.502;2023-08-31T03:01:42;4.37;;;3.80;;
2009;SDS011;1008;47.404;8.502;2023-08-31T03:04:11;6.07;;;3.40;;
2009;SDS011;1008;47.404;8.502;2023-08-31T03:06:38;4.70;;;3.40;;
2009;SDS011;1008;47.404;8.502;2023-08-31T03:09:06;5.47;;;3.20;;
2009;SDS011;1008;47.404;8.502;2023-08-31T03:11:33;3.80;;;3.30;;
2009;SDS011;1008;47.404;8.502;2023-08-31T03:13:59;3.80;;;3.23;;
2009;SDS011;1008;47.404;8.502;2023-08-31T03:16:26;4.70;;;3.53;;
2009;SDS011;1008;47.404;8.502;2023-08-31T03:18:53;4.23;;;2.10;;
2009;SDS011;1008;47.404;8.502;2023-08-31T03:21:19;3.60;;;2.50;;
2009;SDS011;1008;47.404;8.502;2023-08-31T03:23:46;2.40;;;2.20;;
2009;SDS011;1008;47.404;8.502;2023-08-31T03:26:14;1.90;;;1.77;;
2009;SDS011;1008;47.404;8.502;2023-08-31T03:28:41;3.87;;;2.10;;
2009;SDS011;1008;47.404;8.502;2023-08-31T03:31:07;3.40;;;2.20;;
2009;SDS011;1008;47.404;8.502;2023-08-31T03:33:34;2.40;;;2.00;;
2009;SDS011;1008;47.404;8.502;2023-08-31T03:36:01;2.20;;;2.00;;
2009;SDS011;1008;47.404;8.502;2023-08-31T03:38:29;2.10;;;1.87;;
2009;SDS011;1008;47.404;8.502;2023-08-31T03:40:56;1.73;;;1.60;;
2009;SDS011;1008;47.404;8.502;2023-08-31T03:43:25;2.23;;;1.70;;
2009;SDS011;1008;47.404;8.502;2023-08-31T03:45:53;8.30;;;2.40;;
2009;SDS011;1008;47.404;8.502;2023-08-31T03:48:21;2.03;;;1.70;;
2009;SDS011;1008;47.404;8.502;2023-08-31T03:50:48;2.87;;;1.70;;
2009;SDS011;1008;47.404;8.502;2023-08-31T03:53:16;2.33;;;1.50;;
2009;SDS011;1008;47.404;8.502;2023-08-31T03:55:43;2.60;;;1.80;;
2009;SDS011;1008;47.404;8.502;2023-08-31T03:58:09;1.57;;;1.40;;
2009;SDS011;1008;47.404;8.502;2023-08-31T04:00:38;1.93;;;1.60;;
2009;SDS011;1008;47.404;8.502;2023-08-31T04:03:04;2.03;;;1.50;;
2009;SDS011;1008;47.404;8.502;2023-08-31T04:05:32;2.40;;;1.50;;
2009;SDS011;1008;47.404;8.502;2023-08-31T04:07:59;4.77;;;1.90;;
2009;SDS011;1008;47.404;8.502;2023-08-31T04:10:26;2.20;;;1.87;;
2009;SDS011;1008;47.404;8.502;2023-08-31T04:12:54;1.73;;;1.43;;
2009;SDS011;1008;47.404;8.502;2023-08-31T04:15:21;1.83;;;1.63;;
2009;SDS011;1008;47.404;8.502;2023-08-31T04:17:49;2.27;;;1.57;;
2009;SDS011;1008;47.404;8.502;2023-08-31T04:20:16;2.50;;;2.00;;
2009;SDS011;1008;47.404;8.502;2023-08-31T04:22:42;1.90;;;1.40;;
2009;SDS011;1008;47.404;8.502;2023-08-31T04:25:09;1.77;;;1.60;;
2009;SDS011;1008;47.404;8.502;2023-08-31T04:27:36;2.60;;;1.63;;
2009;SDS011;1008;47.404;8.502;2023-08-31T04:30:04;2.93;;;1.40;;
2009;SDS011;1008;47.404;8.502;2023-08-31T04:32:33;2.17;;;1.73;;
2009;SDS011;1008;47.404;8.502;2023-08-31T04:35:01;1.70;;;1.23;;
2009;SDS011;1008;47.404;8.502;2023-08-31T04:37:30;1.80;;;1.70;;
2009;SDS011;1008;47.404;8.502;2023-08-31T04:39:56;2.03;;;1.60;;
2009;SDS011;1008;47.404;8.502;2023-08-31T04:42:24;1.70;;;1.40;;
2009;SDS011;1008;47.404;8.502;2023-08-31T04:44:51;2.17;;;1.97;;
2009;SDS011;1008;47.404;8.502;2023-08-31T04:47:17;2.27;;;1.87;;
2009;SDS011;1008;47.404;8.502;2023-08-31T04:49:44;2.43;;;1.90;;
2009;SDS011;1008;47.404;8.502;2023-08-31T04:52:12;4.90;;;1.60;;
2009;SDS011;1008;47.404;8.502;2023-08-31T04:54:39;2.17;;;1.73;;
2009;SDS011;1008;47.404;8.502;2023-08-31T04:57:06;3.63;;;2.03;;
2009;SDS011;1008;47.404;8.502;2023-08-31T04:59:33;2.60;;;1.50;;
2009;SDS011;1008;47.404;8.502;2023-08-31T05:02:00;5.10;;;2.00;;
2009;SDS011;1008;47.404;8.502;2023-08-31T05:04:26;2.10;;;1.90;;
2009;SDS011;1008;47.404;8.502;2023-08-31T05:06:54;2.70;;;1.90;;
2009;SDS011;1008;47.404;8.502;2023-08-31T05:09:23;2.23;;;2.03;;
2009;SDS011;1008;47.404;8.502;2023-08-31T05:11:50;2.23;;;1.70;;
2009;SDS011;1008;47.404;8.502;2023-08-31T05:14:17;3.10;;;2.07;;
2009;SDS011;1008;47.404;8.502;2023-08-31T05:16:44;3.00;;;1.83;;
2009;SDS011;1008;47.404;8.502;2023-08-31T05:19:11;2.93;;;2.10;;
2009;SDS011;1008;47.404;8.502;2023-08-31T05:21:37;3.47;;;2.17;;
2009;SDS011;1008;47.404;8.502;2023-08-31T05:24:04;3.57;;;2.00;;
2009;SDS011;1008;47.404;8.502;2023-08-31T05:26:32;3.83;;;2.10;;
2009;SDS011;1008;47.404;8.502;2023-08-31T05:29:00;2.70;;;2.07;;
2009;SDS011;1008;47.404;8.502;2023-08-31T05:31:29;4.00;;;2.60;;
2009;SDS011;1008;47.404;8.502;2023-08-31T05:33:55;5.47;;;2.63;;
2009;SDS011;1008;47.404;8.502;2023-08-31T05:36:22;3.23;;;2.53;;
2009;SDS011;1008;47.404;8.502;2023-08-31T05:38:50;4.63;;;3.17;;
2009;SDS011;1008;47.404;8.502;2023-08-31T05:41:18;5.73;;;3.00;;
2009;SDS011;1008;47.404;8.502;2023-08-31T05:43:46;6.37;;;3.73;;
2009;SDS011;1008;47.404;8.502;2023-08-31T05:46:13;6.50;;;2.90;;
2009;SDS011;1008;47.404;8.502;2023-08-31T05:48:39;5.33;;;3.20;;
2009;SDS011;1008;47.404;8.502;2023-08-31T05:51:06;5.33;;;2.70;;
2009;SDS011;1008;47.404;8.502;2023-08-31T05:53:33;3.40;;;2.77;;
2009;SDS011;1008;47.404;8.502;2023-08-31T05:56:00;4.83;;;2.90;;
2009;SDS011;1008;47.404;8.502;2023-08-31T05:58:29;4.90;;;3.37;;
2009;SDS011;1008;47.404;8.502;2023-08-31T06:00:58;4.07;;;2.80;;
2009;SDS011;1008;47.404;8.502;2023-08-31T06:03:25;4.20;;;2.97;;
2009;SDS011;1008;47.404;8.502;2023-08-31T06:05:52;9.30;;;3.50;;
2009;SDS011;1008;47.404;8.502;2023-08-31T06:08:19;3.47;;;2.47;;
2009;SDS011;1008;47.404;8.502;2023-08-31T06:10:46;3.50;;;2.80;;
2009;SDS011;1008;47.404;8.502;2023-08-31T06:13:12;3.23;;;2.90;;
2009;SDS011;1008;47.404;8.502;2023-08-31T06:15:39;3.90;;;2.93;;
2009;SDS011;1008;47.404;8.502;2023-08-31T06:18:08;3.03;;;2.50;;
2009;SDS011;1008;47.404;8.502;2023-08-31T06:20:34;3.03;;;2.63;;
2009;SDS011;1008;47.404;8.502;2023-08-31T06:23:01;3.90;;;2.87;;
2009;SDS011;1008;47.404;8.502;2023-08-31T06:25:30;3.63;;;3.10;;
2009;SDS011;1008;47.404;8.502;2023-08-31T06:27:57;7.07;;;3.83;;
2009;SDS011;1008;47.404;8.502;2023-08-31T06:30:24;7.47;;;3.17;;
2009;SDS011;1008;47.404;8.502;2023-08-31T06:32:51;3.50;;;2.43;;
2009;SDS011;1008;47.404;8.502;2023-08-31T06:35:19;3.27;;;2.40;;
2009;SDS011;1008;47.404;8.502;2023-08-31T06:37:46;6.40;;;3.40;;
2009;SDS011;1008;47.404;8.502;2023-08-31T06:40:13;5.80;;;2.80;;
2009;SDS011;1008;47.404;8.502;2023-08-31T06:42:40;5.20;;;2.80;;
2009;SDS011;1008;47.404;8.502;2023-08-31T06:45:07;4.00;;;2.80;;
2009;SDS011;1008;47.404;8.502;2023-08-31T06:47:34;4.37;;;3.00;;
2009;SDS011;1008;47.404;8.502;2023-08-31T06:50:01;3.33;;;3.03;;
2009;SDS011;1008;47.404;8.502;2023-08-31T06:52:29;5.50;;;3.23;;
2009;SDS011;1008;47.404;8.502;2023-08-31T06:54:56;5.37;;;3.07;;
2009;SDS011;1008;47.404;8.502;2023-08-31T06:57:23;3.33;;;2.63;;
2009;SDS011;1008;47.404;8.502;2023-08-31T06:59:50;4.97;;;3.00;;
2009;SDS011;1008;47.404;8.502;2023-08-31T07:02:17;4.30;;;3.40;;
2009;SDS011;1008;47.404;8.502;2023-08-31T07:04:45;6.60;;;3.50;;
2009;SDS011;1008;47.404;8.502;2023-08-31T07:07:13;8.40;;;3.77;;
2009;SDS011;1008;47.404;8.502;2023-08-31T07:09:41;6.00;;;3.10;;
2009;SDS011;1008;47.404;8.502;2023-08-31T07:12:08;4.60;;;2.73;;
2009;SDS011;1008;47.404;8.502;2023-08-31T07:14:35;4.03;;;3.10;;
2009;SDS011;1008;47.404;8.502;2023-08-31T07:17:02;4.50;;;3.57;;
2009;SDS011;1008;47.404;8.502;2023-08-31T07:19:29;6.03;;;2.83;;
2009;SDS011;1008;47.404;8.502;2023-08-31T07:21:56;3.60;;;2.83;;
2009;SDS011;1008;47.404;8.502;2023-08-31T07:24:24;5.17;;;3.13;;
2009;SDS011;1008;47.404;8.502;2023-08-31T07:26:52;4.20;;;2.90;;
2009;SDS011;1008;47.404;8.502;2023-08-31T07:29:19;3.27;;;2.63;;
2009;SDS011;1008;47.404;8.502;2023-08-31T07:31:46;4.13;;;2.90;;
2009;SDS011;1008;47.404;8.502;2023-08-31T07:34:13;4.33;;;3.17;;
2009;SDS011;1008;47.404;8.502;2023-08-31T07:36:39;3.13;;;2.67;;
2009;SDS011;1008;47.404;8.502;2023-08-31T07:39:07;3.87;;;2.83;;
2009;SDS011;1008;47.404;8.502;2023-08-31T07:41:34;3.40;;;2.40;;
2009;SDS011;1008;47.404;8.502;2023-08-31T07:44:02;3.57;;;2.87;;
2009;SDS011;1008;47.404;8.502;2023-08-31T07:46:29;3.20;;;2.77;;
2009;SDS011;1008;47.404;8.502;2023-08-31T07:48:55;3.30;;;2.70;;
2009;SDS011;1008;47.404;8.502;2023-08-31T07:51:22;4.63;;;2.53;;
2009;SDS011;1008;47.404;8.502;2023-08-31T07:53:50;3.17;;;2.87;;
2009;SDS011;1008;47.404;8.502;2023-08-31T07:56:17;4.47;;;2.80;;
2009;SDS011;1008;47.404;8.502;2023-08-31T07:58:44;6.07;;;3.23;;
2009;SDS011;1008;47.404;8.502;2023-08-31T08:01:12;3.20;;;2.63;;
2009;SDS011;1008;47.404;8.502;2023-08-31T08:03:39;2.90;;;2.60;;
2009;SDS011;1008;47.404;8.502;2023-08-31T08:06:05;3.30;;;2.70;;
2009;SDS011;1008;47.404;8.502;2023-08-31T08:08:33;5.17;;;3.07;;
2009;SDS011;1008;47.404;8.502;2023-08-31T08:11:00;3.00;;;2.40;;
2009;SDS011;1008;47.404;8.502;2023-08-31T08:13:27;3.33;;;2.47;;
2009;SDS011;1008;47.404;8.502;2023-08-31T08:15:54;2.97;;;2.60;;
2009;SDS011;1008;47.404;8.502;2023-08-31T08:18:22;3.10;;;2.73;;
2009;SDS011;1008;47.404;8.502;2023-08-31T08:20:50;4.40;;;2.87;;
2009;SDS011;1008;47.404;8.502;2023-08-31T08:23:17;3.77;;;2.80;;
2009;SDS011;1008;47.404;8.502;2023-08-31T08:25:43;4.80;;;2.87;;
2009;SDS011;1008;47.404;8.502;2023-08-31T08:28:10;3.33;;;3.03;;
2009;SDS011;1008;47.404;8.502;2023-08-31T08:30:37;2.90;;;2.50;;
2009;SDS011;1008;47.404;8.502;2023-08-31T08:33:04;3.93;;;2.87;;
2009;SDS011;1008;47.404;8.502;2023-08-31T08:35:32;3.03;;;2.30;;
2009;SDS011;1008;47.404;8.502;2023-08-31T08:37:58;4.37;;;3.33;;
2009;SDS011;1008;47.404;8.502;2023-08-31T08:40:26;3.83;;;2.80;;
2009;SDS011;1008;47.404;8.502;2023-08-31T08:42:53;4.17;;;3.07;;
2009;SDS011;1008;47.404;8.502;2023-08-31T08:45:19;2.87;;;2.57;;
2009;SDS011;1008;47.404;8.502;2023-08-31T08:47:49;4.30;;;3.10;;
2009;SDS011;1008;47.404;8.502;2023-08-31T08:50:17;3.50;;;2.73;;
2009;SDS011;1008;47.404;8.502;2023-08-31T08:52:46;5.50;;;2.93;;
2009;SDS011;1008;47.404;8.502;2023-08-31T08:55:13;3.00;;;2.70;;
2009;SDS011;1008;47.404;8.502;2023-08-31T08:57:40;3.03;;;2.53;;
2009;SDS011;1008;47.404;8.502;2023-08-31T09:00:08;4.30;;;3.20;;
2009;SDS011;1008;47.404;8.502;2023-08-31T09:02:36;3.73;;;2.67;;
2009;SDS011;1008;47.404;8.502;2023-08-31T09:05:02;3.83;;;3.23;;
2009;SDS011;1008;47.404;8.502;2023-08-31T09:07:30;3.40;;;2.70;;
2009;SDS011;1008;47.404;8.502;2023-08-31T09:10:02;5.17;;;3.10;;
2009;SDS011;1008;47.404;8.502;2023-08-31T09:12:29;4.77;;;2.67;;
2009;SDS011;1008;47.404;8.502;2023-08-31T09:14:56;2.87;;;2.60;;
2009;SDS011;1008;47.404;8.502;2023-08-31T09:17:24;3.43;;;2.90;;
2009;SDS011;1008;47.404;8.502;2023-08-31T09:19:58;3.70;;;2.93;;
2009;SDS011;1008;47.404;8.502;2023-08-31T09:22:26;3.03;;;2.30;;
2009;SDS011;1008;47.404;8.502;2023-08-31T09:24:53;4.10;;;2.70;;
2009;SDS011;1008;47.404;8.502;2023-08-31T09:27:21;2.73;;;2.50;;
2009;SDS011;1008;47.404;8.502;2023-08-31T09:29:49;3.80;;;2.40;;
2009;SDS011;1008;47.404;8.502;2023-08-31T09:32:17;6.93;;;2.50;;
2009;SDS011;1008;47.404;8.502;2023-08-31T09:34:43;3.33;;;2.17;;
2009;SDS011;1008;47.404;8.502;2023-08-31T09:37:11;3.43;;;2.50;;
2009;SDS011;1008;47.404;8.502;2023-08-31T09:39:39;2.93;;;2.50;;
2009;SDS011;1008;47.404;8.502;2023-08-31T09:42:05;3.63;;;2.77;;
2009;SDS011;1008;47.404;8.502;2023-08-31T09:44:34;3.33;;;2.70;;
2009;SDS011;1008;47.404;8.502;2023-08-31T09:47:05;3.13;;;2.50;;
2009;SDS011;1008;47.404;8.502;2023-08-31T09:49:32;3.80;;;2.90;;
2009;SDS011;1008;47.404;8.502;2023-08-31T09:52:00;4.00;;;2.50;;
2009;SDS011;1008;47.404;8.502;2023-08-31T09:54:29;3.87;;;2.87;;
2009;SDS011;1008;47.404;8.502;2023-08-31T09:56:57;3.20;;;2.77;;
2009;SDS011;1008;47.404;8.502;2023-08-31T09:59:27;3.30;;;2.80;;
2009;SDS011;1008;47.404;8.502;2023-08-31T10:01:56;3.90;;;2.30;;
2009;SDS011;1008;47.404;8.502;2023-08-31T10:04:22;3.60;;;2.77;;
2009;SDS011;1008;47.404;8.502;2023-08-31T10:06:50;3.10;;;2.40;;
2009;SDS011;1008;47.404;8.502;2023-08-31T10:09:18;3.43;;;2.60;;
2009;SDS011;1008;47.404;8.502;2023-08-31T10:11:45;2.63;;;2.20;;
2009;SDS011;1008;47.404;8.502;2023-08-31T10:14:13;4.10;;;2.80;;
2009;SDS011;1008;47.404;8.502;2023-08-31T10:16:41;3.13;;;2.60;;
2009;SDS011;1008;47.404;8.502;2023-08-31T10:19:12;5.27;;;2.53;;
2009;SDS011;1008;47.404;8.502;2023-08-31T10:21:39;3.50;;;2.80;;
2009;SDS011;1008;47.404;8.502;2023-08-31T10:24:09;3.40;;;2.50;;
2009;SDS011;1008;47.404;8.502;2023-08-31T10:26:35;4.13;;;3.00;;
2009;SDS011;1008;47.404;8.502;2023-08-31T10:29:02;3.97;;;2.80;;
2009;SDS011;1008;47.404;8.502;2023-08-31T10:31:29;4.30;;;3.20;;
2009;SDS011;1008;47.404;8.502;2023-08-31T10:33:57;4.10;;;2.70;;
2009;SDS011;1008;47.404;8.502;2023-08-31T10:36:36;3.80;;;3.00;;
2009;SDS011;1008;47.404;8.502;2023-08-31T10:39:05;4.60;;;2.93;;
2009;SDS011;1008;47.404;8.502;2023-08-31T10:41:37;4.80;;;3.20;;
2009;SDS011;1008;47.404;8.502;2023-08-31T10:44:17;5.80;;;3.00;;
2009;SDS011;1008;47.404;8.502;2023-08-31T10:46:44;3.70;;;3.30;;
2009;SDS011;1008;47.404;8.502;2023-08-31T10:49:15;3.20;;;2.90;;
2009;SDS011;1008;47.404;8.502;2023-08-31T10:51:44;6.23;;;2.70;;
2009;SDS011;1008;47.404;8.502;2023-08-31T10:54:20;3.67;;;3.00;;
2009;SDS011;1008;47.404;8.502;2023-08-31T10:59:48;4.30;;;3.20;;
2009;SDS011;1008;47.404;8.502;2023-08-31T11:02:34;3.20;;;2.30;;
2009;SDS011;1008;47.404;8.502;2023-08-31T11:05:05;7.60;;;3.03;;
2009;SDS011;1008;47.404;8.502;2023-08-31T11:07:36;4.20;;;3.13;;
2009;SDS011;1008;47.404;8.502;2023-08-31T11:10:07;5.87;;;3.20;;
2009;SDS011;1008;47.404;8.502;2023-08-31T11:12:35;3.90;;;3.03;;
2009;SDS011;1008;47.404;8.502;2023-08-31T11:15:02;4.20;;;3.50;;
2009;SDS011;1008;47.404;8.502;2023-08-31T11:17:29;4.00;;;2.90;;
2009;SDS011;1008;47.404;8.502;2023-08-31T11:19:57;5.10;;;3.00;;
2009;SDS011;1008;47.404;8.502;2023-08-31T11:22:24;3.77;;;2.93;;
2009;SDS011;1008;47.404;8.502;2023-08-31T11:24:52;3.20;;;2.50;;
2009;SDS011;1008;47.404;8.502;2023-08-31T11:27:19;4.30;;;3.10;;
2009;SDS011;1008;47.404;8.502;2023-08-31T11:29:47;5.40;;;2.73;;
2009;SDS011;1008;47.404;8.502;2023-08-31T11:32:14;5.97;;;3.30;;
2009;SDS011;1008;47.404;8.502;2023-08-31T11:34:41;7.23;;;3.00;;
2009;SDS011;1008;47.404;8.502;2023-08-31T11:37:08;5.67;;;3.00;;
2009;SDS011;1008;47.404;8.502;2023-08-31T11:39:36;4.30;;;2.93;;
2009;SDS011;1008;47.404;8.502;2023-08-31T11:42:04;4.60;;;2.80;;
2009;SDS011;1008;47.404;8.502;2023-08-31T11:44:31;3.30;;;2.63;;
2009;SDS011;1008;47.404;8.502;2023-08-31T11:46:57;5.40;;;2.93;;
2009;SDS011;1008;47.404;8.502;2023-08-31T11:49:25;4.73;;;3.00;;
2009;SDS011;1008;47.404;8.502;2023-08-31T11:51:53;4.73;;;2.33;;
2009;SDS011;1008;47.404;8.502;2023-08-31T11:54:20;2.50;;;2.30;;
2009;SDS011;1008;47.404;8.502;2023-08-31T11:56:47;3.87;;;2.70;;
2009;SDS011;1008;47.404;8.502;2023-08-31T11:59:16;3.10;;;2.80;;
2009;SDS011;1008;47.404;8.502;2023-08-31T12:01:45;6.93;;;3.20;;
2009;SDS011;1008;47.404;8.502;2023-08-31T12:04:13;6.57;;;3.20;;
2009;SDS011;1008;47.404;8.502;2023-08-31T12:06:40;4.60;;;3.30;;
2009;SDS011;1008;47.404;8.502;2023-08-31T12:09:08;2.53;;;2.13;;
2009;SDS011;1008;47.404;8.502;2023-08-31T12:11:35;3.83;;;2.60;;
2009;SDS011;1008;47.404;8.502;2023-08-31T12:14:03;3.03;;;2.20;;
2009;SDS011;1008;47.404;8.502;2023-08-31T12:16:45;3.17;;;2.87;;
2009;SDS011;1008;47.404;8.502;2023-08-31T12:19:12;3.73;;;3.20;;
2009;SDS011;1008;47.404;8.502;2023-08-31T12:21:39;5.23;;;2.90;;
2009;SDS011;1008;47.404;8.502;2023-08-31T12:24:06;6.20;;;3.23;;
2009;SDS011;1008;47.404;8.502;2023-08-31T12:26:33;3.50;;;2.80;;
2009;SDS011;1008;47.404;8.502;2023-08-31T12:29:00;3.60;;;2.43;;
2009;SDS011;1008;47.404;8.502;2023-08-31T12:31:27;3.50;;;2.30;;
2009;SDS011;1008;47.404;8.502;2023-08-31T12:33:56;3.47;;;2.43;;
2009;SDS011;1008;47.404;8.502;2023-08-31T12:36:22;3.20;;;2.20;;
2009;SDS011;1008;47.404;8.502;2023-08-31T12:38:49;3.47;;;2.50;;
2009;SDS011;1008;47.404;8.502;2023-08-31T12:41:17;5.57;;;2.47;;
2009;SDS011;1008;47.404;8.502;2023-08-31T12:43:44;4.53;;;2.93;;
2009;SDS011;1008;47.404;8.502;2023-08-31T12:46:11;4.40;;;2.90;;
2009;SDS011;1008;47.404;8.502;2023-08-31T12:48:39;6.50;;;2.80;;
2009;SDS011;1008;47.404;8.502;2023-08-31T12:51:07;4.60;;;2.53;;
2009;SDS011;1008;47.404;8.502;2023-08-31T12:53:37;2.97;;;2.30;;
2009;SDS011;1008;47.404;8.502;2023-08-31T12:56:04;3.40;;;2.30;;
2009;SDS011;1008;47.404;8.502;2023-08-31T12:58:31;2.73;;;2.20;;
2009;SDS011;1008;47.404;8.502;2023-08-31T13:00:57;3.33;;;2.40;;
2009;SDS011;1008;47.404;8.502;2023-08-31T13:03:24;4.70;;;2.73;;
2009;SDS011;1008;47.404;8.502;2023-08-31T13:05:51;2.97;;;2.43;;
2009;SDS011;1008;47.404;8.502;2023-08-31T13:08:19;2.97;;;2.40;;
2009;SDS011;1008;47.404;8.502;2023-08-31T13:10:50;5.00;;;2.70;;
2009;SDS011;1008;47.404;8.502;2023-08-31T13:13:17;4.10;;;2.60;;
2009;SDS011;1008;47.404;8.502;2023-08-31T13:15:45;3.57;;;2.50;;
2009;SDS011;1008;47.404;8.502;2023-08-31T13:18:12;6.33;;;2.47;;
2009;SDS011;1008;47.404;8.502;2023-08-31T13:20:39;3.83;;;2.50;;
2009;SDS011;1008;47.404;8.502;2023-08-31T13:23:06;4.30;;;2.67;;
2009;SDS011;1008;47.404;8.502;2023-08-31T13:25:34;3.60;;;2.97;;
2009;SDS011;1008;47.404;8.502;2023-08-31T13:28:01;4.50;;;3.07;;
2009;SDS011;1008;47.404;8.502;2023-08-31T13:30:29;4.60;;;3.23;;
2009;SDS011;1008;47.404;8.502;2023-08-31T13:32:55;3.00;;;2.67;;
2009;SDS011;1008;47.404;8.502;2023-08-31T13:35:23;4.70;;;2.73;;
2009;SDS011;1008;47.404;8.502;2023-08-31T13:37:49;3.50;;;2.90;;
2009;SDS011;1008;47.404;8.502;2023-08-31T13:40:17;3.07;;;2.60;;
2009;SDS011;1008;47.404;8.502;2023-08-31T13:42:52;3.13;;;2.60;;
2009;SDS011;1008;47.404;8.502;2023-08-31T13:45:21;10.10;;;2.80;;
2009;SDS011;1008;47.404;8.502;2023-08-31T13:47:48;4.10;;;2.83;;
2009;SDS011;1008;47.404;8.502;2023-08-31T13:50:15;5.40;;;2.83;;
2009;SDS011;1008;47.404;8.502;2023-08-31T13:52:42;3.50;;;2.70;;
2009;SDS011;1008;47.404;8.502;2023-08-31T13:55:09;3.33;;;3.03;;
2009;SDS011;1008;47.404;8.502;2023-08-31T13:57:35;2.50;;;2.27;;
2009;SDS011;1008;47.404;8.502;2023-08-31T14:00:04;3.50;;;2.90;;
2009;SDS011;1008;47.404;8.502;2023-08-31T14:02:34;5.20;;;3.23;;
2009;SDS011;1008;47.404;8.502;2023-08-31T14:05:01;6.63;;;2.87;;
2009;SDS011;1008;47.404;8.502;2023-08-31T14:07:28;3.40;;;2.57;;
2009;SDS011;1008;47.404;8.502;2023-08-31T14:09:55;4.50;;;2.87;;
2009;SDS011;1008;47.404;8.502;2023-08-31T14:12:23;4.10;;;2.50;;
2009;SDS011;1008;47.404;8.502;2023-08-31T14:14:50;3.63;;;2.70;;
2009;SDS011;1008;47.404;8.502;2023-08-31T14:17:19;4.30;;;3.07;;
2009;SDS011;1008;47.404;8.502;2023-08-31T14:19:45;3.53;;;2.80;;
2009;SDS011;1008;47.404;8.502;2023-08-31T14:22:12;4.77;;;2.80;;
2009;SDS011;1008;47.404;8.502;2023-08-31T14:24:39;4.10;;;2.83;;
2009;SDS011;1008;47.404;8.502;2023-08-31T14:27:05;4.70;;;3.17;;
2009;SDS011;1008;47.404;8.502;2023-08-31T14:29:32;5.03;;;2.97;;
2009;SDS011;1008;47.404;8.502;2023-08-31T14:32:00;4.90;;;2.80;;
2009;SDS011;1008;47.404;8.502;2023-08-31T14:34:28;4.43;;;3.00;;
2009;SDS011;1008;47.404;8.502;2023-08-31T14:36:56;3.27;;;2.43;;
2009;SDS011;1008;47.404;8.502;2023-08-31T14:39:25;4.87;;;2.70;;
2009;SDS011;1008;47.404;8.502;2023-08-31T14:41:55;3.17;;;2.87;;
2009;SDS011;1008;47.404;8.502;2023-08-31T14:44:22;2.97;;;2.67;;
2009;SDS011;1008;47.404;8.502;2023-08-31T14:46:49;4.73;;;2.63;;
2009;SDS011;1008;47.404;8.502;2023-08-31T14:49:16;4.60;;;2.87;;
2009;SDS011;1008;47.404;8.502;2023-08-31T14:51:44;3.83;;;3.10;;
2009;SDS011;1008;47.404;8.502;2023-08-31T14:54:11;4.80;;;2.87;;
2009;SDS011;1008;47.404;8.502;2023-08-31T14:56:37;3.97;;;2.57;;
2009;SDS011;1008;47.404;8.502;2023-08-31T14:59:04;4.37;;;2.80;;
2009;SDS011;1008;47.404;8.502;2023-08-31T15:01:31;6.90;;;3.00;;
2009;SDS011;1008;47.404;8.502;2023-08-31T15:03:58;4.40;;;2.73;;
2009;SDS011;1008;47.404;8.502;2023-08-31T15:06:24;3.00;;;2.50;;
2009;SDS011;1008;47.404;8.502;2023-08-31T15:08:52;3.30;;;2.37;;
2009;SDS011;1008;47.404;8.502;2023-08-31T15:11:19;3.37;;;2.77;;
2009;SDS011;1008;47.404;8.502;2023-08-31T15:13:46;6.20;;;2.97;;
2009;SDS011;1008;47.404;8.502;2023-08-31T15:16:12;4.27;;;2.97;;
2009;SDS011;1008;47.404;8.502;2023-08-31T15:18:39;4.67;;;2.57;;
2009;SDS011;1008;47.404;8.502;2023-08-31T15:21:06;3.10;;;2.40;;